Time;durP1;ratioP1;P1;durP2;ratioP2;P2;SDS_P1;SDS_P2;PMS_P1;PMS_P2;Temp;Humidity;BMP_temperature;BMP_pressure;BME280_temperature;BME280_humidity;BME280_pressure;Samples;Min_cycle;Max_cycle;Signal;HPM_P1;HPM_P2
2021/05/03 00:03:09;;;;;;;2.50;2.20;;;;;;;4.13;93.50;99482.69;10454422;28;20180;-73
2021/05/03 00:08:28;;;;;;;1.10;0.80;;;;;;;3.99;94.47;99484.25;10456069;28;20214;-73
2021/05/03 00:13:47;;;;;;;1.63;1.13;;;;;;;3.78;99.86;99491.78;10456571;28;20638;-73
2021/05/03 00:19:06;;;;;;;2.07;1.30;;;;;;;3.71;100.00;99486.13;10455741;28;20168;-73
2021/05/03 00:24:25;;;;;;;1.20;1.10;;;;;;;3.56;100.00;99484.13;10455971;28;20175;-73
2021/05/03 00:29:44;;;;;;;1.90;1.80;;;;;;;3.35;100.00;99479.97;10453952;28;20231;-73
2021/05/03 00:35:03;;;;;;;1.97;1.77;;;;;;;3.06;100.00;99495.75;10455975;28;20171;-72
2021/05/03 00:40:22;;;;;;;2.40;1.40;;;;;;;3.01;100.00;99487.81;10455907;28;20175;-72
2021/05/03 00:45:42;;;;;;;1.40;1.23;;;;;;;2.98;100.00;99500.19;10454336;28;20282;-73
2021/05/03 00:51:01;;;;;;;3.17;2.13;;;;;;;3.04;100.00;99492.56;10455746;28;20171;-73
2021/05/03 00:56:20;;;;;;;2.03;1.70;;;;;;;2.87;100.00;99499.03;10455514;28;20266;-73
2021/05/03 01:01:40;;;;;;;4.70;0.83;;;;;;;2.77;100.00;99495.97;10454320;28;20176;-76
2021/05/03 01:06:59;;;;;;;1.63;0.90;;;;;;;2.60;100.00;99502.38;10454181;28;20204;-75
2021/05/03 01:12:18;;;;;;;2.73;1.50;;;;;;;2.58;100.00;99501.94;10455198;28;20207;-74
2021/05/03 01:17:40;;;;;;;1.30;1.10;;;;;;;2.61;100.00;99501.25;10454004;28;20211;-75
2021/05/03 01:23:01;;;;;;;1.23;1.10;;;;;;;2.51;100.00;99507.09;10454958;28;20183;-75
2021/05/03 01:28:20;;;;;;;1.20;1.10;;;;;;;2.61;100.00;99514.06;10454437;28;20251;-75
2021/05/03 01:33:39;;;;;;;1.00;0.90;;;;;;;2.47;100.00;99516.25;10454668;28;20179;-76
2021/05/03 01:38:58;;;;;;;2.07;1.83;;;;;;;2.46;100.00;99514.69;10462417;28;20215;-75
2021/05/03 01:44:17;;;;;;;2.83;1.90;;;;;;;2.44;100.00;99514.22;10460638;28;20171;-76
2021/05/03 01:49:38;;;;;;;1.10;1.00;;;;;;;2.28;100.00;99518.72;10461343;28;20293;-76
2021/05/03 01:54:58;;;;;;;0.97;0.83;;;;;;;2.23;100.00;99520.84;10461633;28;20259;-75
2021/05/03 02:00:17;;;;;;;1.20;0.93;;;;;;;2.08;100.00;99526.88;10460080;28;20176;-75
2021/05/03 02:05:36;;;;;;;1.10;1.00;;;;;;;2.04;100.00;99528.66;10461084;28;20195;-75
2021/05/03 02:10:55;;;;;;;3.03;1.63;;;;;;;2.02;100.00;99530.94;10460876;28;20179;-75
2021/05/03 02:16:14;;;;;;;1.07;0.60;;;;;;;2.07;100.00;99530.72;10459466;28;20242;-75
2021/05/03 02:21:33;;;;;;;1.63;1.10;;;;;;;2.12;100.00;99527.78;10460522;28;20172;-75
2021/05/03 02:26:52;;;;;;;1.90;1.03;;;;;;;2.07;100.00;99530.72;10460068;28;20235;-76
2021/05/03 02:32:12;;;;;;;0.90;0.70;;;;;;;2.10;100.00;99527.34;10458958;28;20183;-74
2021/05/03 02:37:31;;;;;;;1.27;1.17;;;;;;;2.06;100.00;99527.19;10460080;28;20167;-75
2021/05/03 02:42:55;;;;;;;2.70;1.80;;;;;;;1.88;100.00;99524.97;10459869;28;20203;-74
2021/05/03 02:48:14;;;;;;;1.60;1.23;;;;;;;1.88;100.00;99533.09;10457812;28;20250;-75
2021/05/03 02:53:34;;;;;;;1.23;1.13;;;;;;;1.85;100.00;99537.28;10459423;28;20543;-74
2021/05/03 02:58:52;;;;;;;2.93;2.40;;;;;;;1.96;100.00;99543.91;10457950;28;20180;-74
2021/05/03 03:04:11;;;;;;;2.43;1.60;;;;;;;2.00;100.00;99546.75;10458855;28;20179;-73
2021/05/03 03:09:30;;;;;;;1.13;0.97;;;;;;;2.03;100.00;99548.78;10458127;28;20199;-76
2021/05/03 03:14:49;;;;;;;5.23;2.50;;;;;;;1.94;100.00;99551.56;10457265;28;20298;-74
2021/05/03 03:20:09;;;;;;;0.87;0.57;;;;;;;2.05;100.00;99555.47;10457286;28;20218;-73
2021/05/03 03:25:29;;;;;;;3.07;1.50;;;;;;;1.97;100.00;99560.97;10456820;28;20219;-75
2021/05/03 03:30:48;;;;;;;4.60;1.67;;;;;;;1.87;100.00;99572.22;10456562;28;20626;-73
2021/05/03 03:36:07;;;;;;;5.60;2.60;;;;;;;1.83;100.00;99571.28;10457778;28;20191;-73
2021/05/03 03:41:26;;;;;;;2.00;1.80;;;;;;;1.87;100.00;99572.22;10457627;28;20175;-73
2021/05/03 03:46:45;;;;;;;1.63;1.53;;;;;;;1.94;100.00;99583.34;10455725;28;20567;-75
2021/05/03 03:52:04;;;;;;;3.07;1.20;;;;;;;1.92;100.00;99585.59;10456093;28;20266;-73
2021/05/03 03:57:23;;;;;;;13.60;2.60;;;;;;;2.02;100.00;99585.19;10455458;28;20175;-74
2021/05/03 04:02:45;;;;;;;3.23;1.00;;;;;;;1.96;100.00;99590.03;10455482;28;20194;-74
2021/05/03 04:08:20;;;;;;;3.27;2.17;;;;;;;2.04;100.00;99593.78;10456274;28;20203;-73
2021/05/03 04:30:15;;;;;;;1.00;0.90;;;;;;;2.06;100.00;99607.81;10454229;28;20219;-75
2021/05/03 04:35:34;;;;;;;3.00;2.33;;;;;;;2.18;100.00;99613.31;10456102;28;20172;-74
2021/05/03 04:40:53;;;;;;;1.50;1.40;;;;;;;2.25;100.00;99621.72;10455812;28;20167;-75
2021/05/03 04:46:12;;;;;;;1.33;1.23;;;;;;;2.41;100.00;99623.50;10454240;28;20199;-74
2021/05/03 04:51:31;;;;;;;1.30;1.07;;;;;;;2.43;100.00;99624.75;10455453;28;20207;-75
2021/05/03 04:56:50;;;;;;;2.90;2.00;;;;;;;2.56;100.00;99623.69;10455579;28;20262;-73
2021/05/03 05:02:10;;;;;;;1.37;1.27;;;;;;;2.75;100.00;99628.59;10453829;28;20183;-73
2021/05/03 05:07:30;;;;;;;2.30;1.80;;;;;;;2.93;100.00;99638.19;10489951;28;20222;-74
2021/05/03 05:12:50;;;;;;;8.37;1.70;;;;;;;3.00;100.00;99644.63;10463342;28;20187;-75
2021/05/03 05:18:10;;;;;;;1.73;1.53;;;;;;;3.12;100.00;99641.16;10461025;28;20191;-74
2021/05/03 05:23:29;;;;;;;2.13;1.93;;;;;;;3.28;100.00;99627.34;10462938;28;20262;-74
2021/05/03 05:28:48;;;;;;;4.90;1.77;;;;;;;3.53;100.00;99634.41;10460957;28;20231;-76
2021/05/03 05:34:07;;;;;;;2.80;1.53;;;;;;;3.85;100.00;99643.59;10461682;28;20569;-74
2021/05/03 05:39:27;;;;;;;1.97;1.43;;;;;;;4.19;100.00;99638.44;10469431;28;20226;-75
2021/05/03 05:44:46;;;;;;;1.63;1.47;;;;;;;4.52;100.00;99642.53;10482222;28;20548;-75
2021/05/03 05:50:05;;;;;;;1.23;1.13;;;;;;;4.69;100.00;99636.78;10461102;28;20204;-75
2021/05/03 05:55:24;;;;;;;1.50;1.40;;;;;;;5.06;100.00;99644.44;10461781;28;20195;-74
2021/05/03 06:00:44;;;;;;;1.20;1.10;;;;;;;5.50;100.00;99662.34;10460192;28;20183;-73
2021/05/03 06:06:03;;;;;;;4.03;1.83;;;;;;;5.86;100.00;99656.63;10461101;28;20203;-74
2021/05/03 06:11:22;;;;;;;4.63;1.37;;;;;;;5.85;100.00;99655.84;10460115;28;20187;-74
2021/05/03 06:16:41;;;;;;;2.47;2.27;;;;;;;6.45;100.00;99656.06;10458644;28;20614;-73
2021/05/03 06:22:00;;;;;;;2.30;2.00;;;;;;;6.70;100.00;99662.06;10460101;28;20638;-73
2021/05/03 06:27:19;;;;;;;2.50;1.70;;;;;;;6.99;97.74;99669.66;10459804;28;20222;-74
2021/05/03 06:32:38;;;;;;;2.67;2.30;;;;;;;7.48;94.19;99657.66;10459159;28;20176;-74
2021/05/03 06:37:57;;;;;;;1.47;1.37;;;;;;;7.98;91.64;99660.88;10460009;28;20224;-75
2021/05/03 06:43:16;;;;;;;8.80;2.23;;;;;;;8.57;87.42;99661.75;10459900;28;20666;-75
2021/05/03 06:48:35;;;;;;;6.37;3.90;;;;;;;9.02;85.48;99665.09;10457941;28;20219;-76
2021/05/03 06:53:54;;;;;;;4.37;2.90;;;;;;;9.23;68.74;99665.31;10459315;28;20187;-75
2021/05/03 06:59:13;;;;;;;9.33;3.27;;;;;;;9.45;67.07;99667.09;10457941;28;20183;-74
2021/05/03 07:04:33;;;;;;;4.73;3.27;;;;;;;9.57;66.33;99669.56;10458927;28;20661;-76
2021/05/03 07:09:52;;;;;;;2.30;1.73;;;;;;;9.88;64.72;99671.81;10475689;28;20210;-75
2021/05/03 07:15:12;;;;;;;3.73;1.83;;;;;;;10.27;62.72;99672.91;10468264;28;20195;-76
2021/05/03 07:20:31;;;;;;;3.33;3.03;;;;;;;10.28;62.82;99671.75;10458304;28;20179;-75
2021/05/03 07:25:50;;;;;;;18.03;3.97;;;;;;;10.61;59.58;99673.13;10457622;28;20290;-76
2021/05/03 07:31:09;;;;;;;4.97;3.03;;;;;;;10.82;59.00;99676.00;10456044;28;20180;-76
2021/05/03 07:36:28;;;;;;;2.93;2.73;;;;;;;10.77;56.95;99661.81;10457682;28;20180;-74
2021/05/03 07:41:47;;;;;;;3.13;2.50;;;;;;;11.00;57.84;99671.34;10459839;28;20191;-76
2021/05/03 07:47:06;;;;;;;16.13;4.07;;;;;;;11.75;53.38;99649.88;10464527;28;20214;-74
2021/05/03 07:52:25;;;;;;;2.97;2.40;;;;;;;11.78;52.97;99656.59;10456950;28;20175;-74
2021/05/03 07:57:44;;;;;;;3.53;2.50;;;;;;;11.91;52.68;99660.53;10456910;28;20179;-75
2021/05/03 08:03:03;;;;;;;2.83;2.63;;;;;;;11.19;51.92;99658.03;10455477;28;20207;-75
2021/05/03 08:08:22;;;;;;;2.97;2.67;;;;;;;12.03;50.52;99652.66;10456189;28;20250;-75
2021/05/03 08:13:44;;;;;;;6.30;3.50;;;;;;;11.33;50.85;99655.34;10456500;28;20206;-76
2021/05/03 08:19:03;;;;;;;2.60;2.40;;;;;;;11.85;52.26;99657.38;10466610;28;20598;-76
2021/05/03 08:24:22;;;;;;;3.80;3.10;;;;;;;11.46;49.44;99651.03;10456173;28;20183;-75
2021/05/03 08:29:40;;;;;;;5.43;3.00;;;;;;;11.90;47.50;99656.19;10454190;28;20231;-76
2021/05/03 08:34:59;;;;;;;4.57;2.60;;;;;;;12.47;47.27;99642.72;10454973;28;20168;-75
2021/05/03 08:40:20;;;;;;;3.67;2.33;;;;;;;12.90;43.56;99652.50;10454884;28;20254;-76
2021/05/03 08:45:39;;;;;;;2.67;2.47;;;;;;;13.97;42.65;99651.00;10461228;28;20605;-75
2021/05/03 08:51:10;;;;;;;3.23;2.23;;;;;;;14.16;41.29;99644.16;10464698;28;20217;-75
2021/05/03 08:56:29;;;;;;;6.23;3.20;;;;;;;13.82;41.41;99644.00;10471946;28;20630;-75
2021/05/03 09:01:50;;;;;;;5.37;2.20;;;;;;;12.77;44.84;99631.97;10462469;28;20206;-74
2021/05/03 09:07:12;;;;;;;2.80;2.60;;;;;;;13.38;41.73;99629.31;10463346;28;20206;-74
2021/05/03 09:12:31;;;;;;;2.47;1.93;;;;;;;12.42;42.38;99626.59;10462155;28;20787;-75
2021/05/03 09:17:53;;;;;;;2.07;1.50;;;;;;;13.56;40.49;99607.88;10467796;28;20194;-74
2021/05/03 09:23:23;;;;;;;2.57;2.10;;;;;;;12.34;42.23;99625.03;10464806;28;20187;-77
2021/05/03 09:28:42;;;;;;;3.27;2.47;;;;;;;12.65;40.89;99604.03;10462111;28;20231;-77
2021/05/03 09:34:01;;;;;;;4.73;3.00;;;;;;;12.50;43.95;99599.75;10460027;28;20207;-77
2021/05/03 09:39:30;;;;;;;2.80;1.90;;;;;;;12.23;40.84;99602.19;10462120;28;20199;-74
2021/05/03 09:45:10;;;;;;;1.90;1.70;;;;;;;13.20;39.20;99583.66;10461730;28;20184;-74
2021/05/03 09:50:32;;;;;;;2.00;1.80;;;;;;;12.89;40.69;99581.88;10473302;28;20215;-77
2021/05/03 09:55:54;;;;;;;2.93;1.50;;;;;;;12.72;42.69;99579.19;10465704;28;20187;-75
2021/05/03 10:01:15;;;;;;;2.37;2.17;;;;;;;13.78;40.17;99587.16;10460379;28;20172;-76
2021/05/03 10:06:34;;;;;;;2.13;1.77;;;;;;;15.42;43.34;99580.50;10471709;28;20676;-75
2021/05/03 10:11:53;;;;;;;3.27;2.23;;;;;;;15.71;35.76;99570.53;10460871;28;20642;-74
2021/05/03 10:17:15;;;;;;;2.60;2.40;;;;;;;13.85;36.85;99573.31;10459486;28;20175;-75
2021/05/03 10:22:35;;;;;;;1.93;1.83;;;;;;;14.04;40.29;99561.63;10472095;28;20199;-76
2021/05/03 10:27:58;;;;;;;13.73;2.50;;;;;;;15.79;36.53;99549.81;10459805;28;20218;-77
2021/05/03 10:33:18;;;;;;;3.80;1.60;;;;;;;15.28;35.83;99541.91;10458061;28;20179;-75
2021/05/03 10:38:41;;;;;;;5.63;1.80;;;;;;;14.89;31.92;99541.66;10460114;28;20179;-75
2021/05/03 10:44:26;;;;;;;1.30;1.03;;;;;;;14.91;32.74;99530.94;10459677;28;20179;-78
2021/05/03 10:49:47;;;;;;;3.17;2.23;;;;;;;13.91;34.36;99533.69;10458099;28;20203;-77
2021/05/03 10:55:07;;;;;;;1.40;1.10;;;;;;;14.04;34.03;99534.78;10458317;28;20176;-75
2021/05/03 11:00:32;;;;;;;2.43;1.20;;;;;;;15.00;32.38;99511.81;10489226;28;20191;-74
2021/05/03 11:05:51;;;;;;;11.67;1.50;;;;;;;15.49;33.01;99506.31;10499186;28;20595;-75
2021/05/03 11:11:11;;;;;;;2.67;1.83;;;;;;;16.14;31.69;99497.97;10499030;28;20174;-76
2021/05/03 11:16:33;;;;;;;2.17;1.40;;;;;;;14.79;31.68;99503.00;10498662;28;20262;-77
2021/05/03 11:21:54;;;;;;;2.00;1.70;;;;;;;14.10;34.23;99508.22;10499636;28;20758;-75
2021/05/03 11:27:28;;;;;;;1.90;1.80;;;;;;;13.14;35.84;99510.69;10499014;28;20234;-75
2021/05/03 11:32:53;;;;;;;1.40;1.30;;;;;;;12.67;37.38;99497.56;10491846;28;20199;-74
2021/05/03 11:44:27;;;;;;;1.60;1.30;;;;;;;13.32;35.89;99483.72;10456870;28;20534;-75
2021/05/03 11:49:44;;;;;;;1.50;1.17;;;;;;;12.80;36.62;99479.34;10456674;28;20257;-75
2021/05/03 11:55:05;;;;;;;1.87;1.63;;;;;;;13.51;36.85;99469.31;10455703;28;20171;-77
2021/05/03 12:00:27;;;;;;;1.57;1.47;;;;;;;13.42;34.17;99469.00;10455769;28;20564;-78
2021/05/03 12:05:46;;;;;;;2.17;1.47;;;;;;;14.36;35.64;99454.97;10456682;28;20614;-76
2021/05/03 12:11:07;;;;;;;3.33;1.70;;;;;;;15.10;32.19;99449.91;10455598;28;20179;-75
2021/05/03 12:16:33;;;;;;;1.60;1.33;;;;;;;15.75;32.18;99432.56;10454940;28;20185;-78
2021/05/03 12:22:00;;;;;;;2.73;1.63;;;;;;;14.78;31.33;99427.47;10456185;28;20617;-76
2021/05/03 12:27:19;;;;;;;3.83;2.20;;;;;;;14.74;33.06;99423.16;10455514;28;20579;-75
2021/05/03 12:32:40;;;;;;;2.17;1.87;;;;;;;15.55;30.63;99421.44;10487325;28;20661;-76
2021/05/03 12:38:12;;;;;;;2.13;1.43;;;;;;;16.63;30.12;99416.44;10473925;28;20194;-76
2021/05/03 12:43:38;;;;;;;1.77;1.47;;;;;;;14.88;31.23;99417.41;10455898;28;20179;-76
2021/05/03 12:49:05;;;;;;;1.60;1.40;;;;;;;14.15;33.83;99419.25;10454113;28;20210;-75
2021/05/03 12:54:39;;;;;;;1.20;1.07;;;;;;;15.77;31.02;99397.63;10455976;28;20266;-75
2021/05/03 13:00:11;;;;;;;3.10;1.80;;;;;;;16.45;30.70;99376.38;10454706;28;20172;-75
2021/05/03 13:05:44;;;;;;;2.43;1.87;;;;;;;15.44;31.68;99384.00;10454569;28;20172;-76
2021/05/03 13:11:45;;;;;;;2.50;1.57;;;;;;;14.90;31.38;99381.75;10455222;28;20175;-77
2021/05/03 13:23:58;;;;;;;1.70;1.10;;;;;;;14.78;32.01;99365.75;10453451;28;20678;-76
2021/05/03 13:29:09;;;;;;;1.73;1.60;;;;;;;15.97;30.25;99354.03;10454219;28;20262;-77
2021/05/03 13:34:29;;;;;;;3.30;2.50;;;;;;;14.65;32.07;99353.69;10462794;28;20219;-75
2021/05/03 13:39:49;;;;;;;2.27;2.07;;;;;;;14.74;32.13;99346.41;10462379;28;20533;-75
2021/05/03 13:45:10;;;;;;;4.37;2.50;;;;;;;14.21;33.08;99351.19;10460984;28;20175;-76
2021/05/03 13:50:29;;;;;;;2.07;1.97;;;;;;;14.27;33.59;99337.66;10460298;28;20281;-75
2021/05/03 13:55:48;;;;;;;2.77;1.50;;;;;;;14.93;32.49;99328.31;10461712;28;20183;-76
2021/05/03 14:01:06;;;;;;;4.47;3.00;;;;;;;15.20;31.44;99324.22;10459378;28;20199;-76
2021/05/03 14:06:25;;;;;;;4.47;2.37;;;;;;;15.20;33.63;99313.91;10461202;28;20230;-76
2021/05/03 14:11:45;;;;;;;3.63;3.23;;;;;;;15.10;32.95;99305.03;10461335;28;20179;-75
2021/05/03 14:17:07;;;;;;;3.17;2.17;;;;;;;15.94;30.49;99302.16;10459647;28;20254;-76
2021/05/03 14:22:26;;;;;;;2.50;2.30;;;;;;;16.32;29.24;99304.09;10460739;28;20168;-76
2021/05/03 14:27:47;;;;;;;4.87;2.20;;;;;;;16.38;30.34;99284.91;10459924;28;20252;-75
2021/05/03 14:33:21;;;;;;;3.67;1.73;;;;;;;15.25;31.11;99288.53;10459107;28;20211;-75
2021/05/03 14:38:40;;;;;;;2.20;2.00;;;;;;;15.11;31.97;99289.94;10460264;28;20621;-77
2021/05/03 14:43:59;;;;;;;2.13;1.93;;;;;;;14.53;31.94;99291.38;10459646;28;20633;-79
2021/05/03 14:54:41;;;;;;;2.40;2.20;;;;;;;14.64;32.92;99274.56;10458894;28;20187;-76
2021/05/03 15:00:00;;;;;;;3.10;2.60;;;;;;;14.76;33.50;99260.91;10457961;28;20221;-76
2021/05/03 15:05:19;;;;;;;6.03;2.93;;;;;;;15.16;32.74;99257.78;10459052;28;20567;-76
2021/05/03 15:10:40;;;;;;;2.50;2.27;;;;;;;14.42;33.72;99251.22;10458158;28;20207;-78
2021/05/03 15:16:16;;;;;;;2.80;1.87;;;;;;;14.26;35.68;99253.88;10457165;28;20257;-79
2021/05/03 15:21:37;;;;;;;2.40;2.20;;;;;;;14.05;34.63;99248.63;10458123;28;20172;-78
2021/05/03 15:27:10;;;;;;;3.03;2.83;;;;;;;14.00;35.30;99246.31;10456742;28;20235;-76
2021/05/03 15:32:52;;;;;;;2.93;1.97;;;;;;;13.99;34.43;99238.44;10456626;28;20638;-78
2021/05/03 15:38:14;;;;;;;2.10;1.90;;;;;;;14.51;35.05;99232.09;10456676;28;20257;-77
2021/05/03 15:43:34;;;;;;;2.90;2.27;;;;;;;14.42;34.21;99218.00;10457550;28;20179;-79
2021/05/03 15:48:53;;;;;;;2.10;1.47;;;;;;;13.86;35.46;99215.31;10455618;28;20234;-77
2021/05/03 15:54:12;;;;;;;6.23;1.97;;;;;;;13.90;36.03;99213.28;10455571;28;20167;-77
2021/05/03 15:59:31;;;;;;;2.00;1.80;;;;;;;14.06;35.92;99219.75;10455443;28;20673;-80
2021/05/03 16:04:50;;;;;;;2.03;1.87;;;;;;;13.89;35.83;99215.25;10456873;28;20175;-77
2021/05/03 16:10:10;;;;;;;2.40;2.20;;;;;;;13.48;36.36;99208.38;10455045;28;20207;-76
2021/05/03 16:15:30;;;;;;;3.13;2.23;;;;;;;13.35;36.43;99204.59;10454220;28;20167;-77
2021/05/03 16:20:49;;;;;;;2.20;2.00;;;;;;;13.31;38.17;99200.31;10455354;28;20179;-79
2021/05/03 16:26:08;;;;;;;3.90;1.50;;;;;;;13.20;37.68;99188.59;10455619;28;20709;-79
2021/05/03 16:31:27;;;;;;;2.37;1.97;;;;;;;13.50;36.96;99185.81;10439682;28;20630;-76
2021/05/03 16:36:47;;;;;;;2.63;2.40;;;;;;;13.56;38.04;99187.72;10455736;28;20642;-77
2021/05/03 16:42:06;;;;;;;13.90;1.73;;;;;;;13.54;38.04;99182.63;10455853;28;20172;-77
2021/05/03 16:47:25;;;;;;;1.73;1.63;;;;;;;13.45;37.75;99172.50;10454053;28;20211;-76
2021/05/03 16:52:45;;;;;;;1.50;1.40;;;;;;;13.28;38.19;99162.44;10455669;28;20209;-77
2021/05/03 16:58:08;;;;;;;3.00;1.90;;;;;;;13.22;39.20;99164.88;10455494;28;20257;-77
2021/05/03 17:03:27;;;;;;;4.43;2.53;;;;;;;13.04;39.51;99167.13;10454584;28;20195;-77
2021/05/03 17:08:46;;;;;;;2.07;1.87;;;;;;;13.22;38.50;99159.38;10463315;28;20211;-74
2021/05/03 17:14:05;;;;;;;1.57;1.27;;;;;;;13.25;38.85;99146.69;10463216;28;20198;-73
2021/05/03 17:19:24;;;;;;;1.93;1.83;;;;;;;13.10;38.83;99145.31;10462203;28;20529;-77
2021/05/03 17:24:43;;;;;;;2.17;1.83;;;;;;;13.11;39.15;99135.84;10462932;28;20168;-77
2021/05/03 17:30:03;;;;;;;4.00;2.57;;;;;;;13.32;39.61;99138.34;10460014;28;20219;-75
2021/05/03 17:35:23;;;;;;;1.60;1.40;;;;;;;13.33;39.51;99135.16;10462655;28;20175;-77
2021/05/03 17:40:42;;;;;;;2.33;1.50;;;;;;;13.52;38.46;99126.97;10461504;28;20191;-77
2021/05/03 17:46:01;;;;;;;3.33;2.23;;;;;;;13.59;38.97;99113.03;10460896;28;20242;-77
2021/05/03 17:51:21;;;;;;;1.60;1.50;;;;;;;13.98;37.74;99109.66;10462051;28;20171;-75
2021/05/03 17:56:40;;;;;;;2.87;2.33;;;;;;;13.52;38.62;99104.09;10461935;28;20183;-75
2021/05/03 18:01:59;;;;;;;20.00;3.13;;;;;;;13.16;40.30;99107.78;10460141;28;20227;-76
2021/05/03 18:07:18;;;;;;;3.27;1.90;;;;;;;13.00;42.38;99104.84;10461162;28;20215;-76
2021/05/03 18:12:37;;;;;;;3.50;2.60;;;;;;;12.70;43.26;99101.25;10460995;28;20168;-76
2021/05/03 18:17:57;;;;;;;3.23;2.70;;;;;;;12.54;43.76;99101.81;10459063;28;20185;-77
2021/05/03 18:23:16;;;;;;;2.90;2.47;;;;;;;12.37;44.04;99091.75;10460697;28;20175;-76
2021/05/03 18:28:35;;;;;;;3.27;2.80;;;;;;;12.08;46.07;99100.72;10459000;28;20230;-76
2021/05/03 18:33:55;;;;;;;3.47;1.83;;;;;;;11.93;47.29;99091.81;10458946;28;20175;-76
2021/05/03 18:39:14;;;;;;;15.63;3.43;;;;;;;11.72;48.63;99082.16;10459267;28;20176;-77
2021/05/03 18:44:33;;;;;;;3.50;2.53;;;;;;;11.57;48.51;99089.75;10458574;28;20244;-77
2021/05/03 18:49:54;;;;;;;6.00;2.30;;;;;;;11.40;48.49;99073.31;10459246;28;20211;-75
2021/05/03 18:55:13;;;;;;;4.03;3.00;;;;;;;11.29;49.63;99078.13;10459523;28;20179;-75
2021/05/03 19:00:32;;;;;;;3.40;3.20;;;;;;;11.17;49.13;99075.84;10457951;28;20234;-76
2021/05/03 19:05:52;;;;;;;2.50;2.30;;;;;;;11.01;50.76;99067.28;10459213;28;20638;-76
2021/05/03 19:11:11;;;;;;;5.67;2.97;;;;;;;10.86;51.54;99059.53;10458925;28;20183;-75
2021/05/03 19:16:30;;;;;;;2.47;2.10;;;;;;;10.76;52.88;99065.88;10457479;28;20646;-77
2021/05/03 19:21:50;;;;;;;4.20;2.83;;;;;;;10.57;53.09;99061.63;10458411;28;20217;-76
2021/05/03 19:27:09;;;;;;;3.00;2.80;;;;;;;10.53;53.13;99063.59;10456872;28;20231;-75
2021/05/03 19:32:34;;;;;;;2.70;2.50;;;;;;;10.45;53.44;99055.78;10455496;28;20646;-75
2021/05/03 19:37:54;;;;;;;3.87;3.00;;;;;;;10.23;53.60;99051.53;10457654;28;20180;-75
2021/05/03 19:43:13;;;;;;;2.50;2.30;;;;;;;10.13;54.42;99038.63;10457498;28;20183;-74
2021/05/03 19:48:37;;;;;;;2.23;1.83;;;;;;;9.99;55.08;99037.84;10455613;28;20207;-74
2021/05/03 20:05:13;;;;;;;5.67;3.10;;;;;;;9.52;57.77;99027.31;10456793;28;20258;-76
2021/05/03 20:10:35;;;;;;;3.30;2.43;;;;;;;9.45;57.56;99019.03;10456109;28;20238;-76
2021/05/03 20:15:54;;;;;;;1.90;1.80;;;;;;;9.47;57.52;99015.94;10454139;28;20207;-75
2021/05/03 20:21:13;;;;;;;2.10;1.87;;;;;;;9.44;57.84;99006.53;10455471;28;20641;-75
2021/05/03 20:26:32;;;;;;;4.07;2.57;;;;;;;9.43;57.54;98991.22;10454872;28;20231;-76
2021/05/03 20:31:50;;;;;;;4.20;2.57;;;;;;;9.43;57.51;99002.22;10454026;28;20171;-75
2021/05/03 20:42:36;;;;;;;3.90;2.33;;;;;;;9.17;58.91;98993.56;10455128;28;20658;-76
2021/05/03 20:47:55;;;;;;;2.60;1.40;;;;;;;9.07;59.86;98997.88;10452968;28;20661;-75
2021/05/03 20:53:14;;;;;;;2.77;2.10;;;;;;;8.91;60.64;98986.50;10455573;28;20653;-75
2021/05/03 20:58:33;;;;;;;4.73;2.63;;;;;;;8.77;61.07;98974.72;10454632;28;20183;-76
2021/05/03 21:03:52;;;;;;;3.03;2.80;;;;;;;8.66;62.51;98973.13;10453207;28;20622;-76
2021/05/03 21:09:11;;;;;;;3.90;2.53;;;;;;;8.42;64.04;98963.69;10455062;28;20203;-75
2021/05/03 21:14:30;;;;;;;4.03;2.70;;;;;;;8.18;65.47;98966.34;10452922;28;20179;-76
2021/05/03 21:19:49;;;;;;;1.67;1.57;;;;;;;8.28;65.11;98960.13;10455200;28;20171;-76
2021/05/03 21:25:09;;;;;;;4.13;2.20;;;;;;;8.23;65.64;98946.81;10453992;28;20622;-77
2021/05/03 21:30:28;;;;;;;2.07;1.83;;;;;;;8.22;65.54;98946.00;10453165;28;20207;-75
2021/05/03 21:35:46;;;;;;;2.00;1.90;;;;;;;8.05;66.42;98948.66;10453919;28;20658;-77
2021/05/03 21:41:05;;;;;;;2.93;2.70;;;;;;;7.95;67.37;98947.47;10454758;28;20544;-78
2021/05/03 21:46:25;;;;;;;3.27;2.97;;;;;;;7.70;67.84;98929.34;10453435;28;20171;-75
2021/05/03 21:51:44;;;;;;;2.40;2.20;;;;;;;7.65;68.73;98939.84;10456375;28;20184;-75
2021/05/03 21:57:04;;;;;;;4.20;2.53;;;;;;;7.63;68.25;98928.53;10461887;28;20183;-77
2021/05/03 22:02:23;;;;;;;4.67;3.50;;;;;;;7.49;68.82;98921.03;10460276;28;20188;-76
2021/05/03 22:07:43;;;;;;;3.60;2.83;;;;;;;7.49;68.84;98907.34;10461188;28;20670;-77
2021/05/03 22:13:05;;;;;;;3.43;2.67;;;;;;;7.44;68.93;98891.25;10461203;28;20179;-74
2021/05/03 22:18:39;;;;;;;5.37;2.00;;;;;;;7.47;68.71;98887.78;10459688;28;20634;-76
2021/05/03 22:24:06;;;;;;;3.63;2.80;;;;;;;7.32;69.30;98885.31;10460784;28;20532;-75
2021/05/03 22:29:26;;;;;;;5.70;3.10;;;;;;;7.13;69.92;98878.19;10457397;28;20243;-74
2021/05/03 22:34:45;;;;;;;5.20;2.90;;;;;;;7.16;70.34;98869.22;10459324;28;20183;-74
2021/05/03 23:19:24;;;;;;;2.77;2.53;;;;;;;6.05;80.08;98786.41;10458565;28;20168;-74
2021/05/03 23:24:43;;;;;;;2.03;1.83;;;;;;;6.02;81.40;98778.94;10458418;28;20172;-76
2021/05/03 23:30:03;;;;;;;4.03;1.93;;;;;;;6.24;77.45;98760.78;10456305;28;20596;-77
2021/05/03 23:35:22;;;;;;;5.27;3.27;;;;;;;6.53;74.93;98736.03;10456987;28;20206;-76
2021/05/03 23:40:41;;;;;;;3.17;2.60;;;;;;;6.76;74.13;98737.34;10457604;28;20626;-76
2021/05/03 23:46:00;;;;;;;2.97;2.63;;;;;;;6.86;73.56;98719.44;10455239;28;20167;-77
2021/05/03 23:51:19;;;;;;;5.30;3.23;;;;;;;6.86;73.52;98713.97;10456496;28;20262;-76
2021/05/03 23:56:38;;;;;;;5.80;4.23;;;;;;;6.80;73.29;98704.53;10457248;28;20191;-77
